sensor_id;sensor_type;location;lat;lon;timestamp;pressure;altitude;pressure_sealevel;temperature;humidity
45941;BME280;31858;46.008;8.978;2023-06-04T00:03:25;94628.47;;;14.52;100.00
45941;BME280;31858;46.008;8.978;2023-06-04T00:13:28;94620.38;;;14.63;100.00
45941;BME280;31858;46.008;8.978;2023-06-04T00:23:30;94605.94;;;14.43;100.00
45941;BME280;31858;46.008;8.978;2023-06-04T00:33:33;94616.66;;;14.43;100.00
45941;BME280;31858;46.008;8.978;2023-06-04T00:43:35;94629.06;;;14.22;100.00
45941;BME280;31858;46.008;8.978;2023-06-04T00:53:39;94628.97;;;14.33;100.00
45941;BME280;31858;46.008;8.978;2023-06-04T01:03:42;94656.59;;;14.26;100.00
45941;BME280;31858;46.008;8.978;2023-06-04T01:13:48;94660.34;;;14.36;100.00
45941;BME280;31858;46.008;8.978;2023-06-04T01:23:50;94657.63;;;14.47;100.00
45941;BME280;31858;46.008;8.978;2023-06-04T01:34:00;94647.59;;;14.58;100.00
45941;BME280;31858;46.008;8.978;2023-06-04T01:44:02;94644.19;;;14.50;100.00
45941;BME280;31858;46.008;8.978;2023-06-04T01:54:05;94651.50;;;14.46;100.00
45941;BME280;31858;46.008;8.978;2023-06-04T02:04:07;94650.31;;;14.51;100.00
45941;BME280;31858;46.008;8.978;2023-06-04T02:14:10;94634.22;;;14.54;100.00
45941;BME280;31858;46.008;8.978;2023-06-04T02:24:11;94643.09;;;14.41;100.00
45941;BME280;31858;46.008;8.978;2023-06-04T02:34:14;94651.94;;;14.30;100.00
45941;BME280;31858;46.008;8.978;2023-06-04T02:44:16;94676.53;;;14.18;100.00
45941;BME280;31858;46.008;8.978;2023-06-04T02:54:19;94681.53;;;14.16;100.00
45941;BME280;31858;46.008;8.978;2023-06-04T03:04:20;94706.78;;;14.19;100.00
45941;BME280;31858;46.008;8.978;2023-06-04T03:14:23;94702.19;;;14.19;100.00
45941;BME280;31858;46.008;8.978;2023-06-04T03:24:33;94727.81;;;14.27;100.00
45941;BME280;31858;46.008;8.978;2023-06-04T03:34:36;94707.13;;;14.24;100.00
45941;BME280;31858;46.008;8.978;2023-06-04T03:44:38;94727.50;;;14.08;100.00
45941;BME280;31858;46.008;8.978;2023-06-04T03:54:41;94748.94;;;14.08;100.00
45941;BME280;31858;46.008;8.978;2023-06-04T04:04:42;94749.69;;;14.08;100.00
45941;BME280;31858;46.008;8.978;2023-06-04T04:14:45;94748.53;;;14.16;100.00
45941;BME280;31858;46.008;8.978;2023-06-04T04:24:47;94741.66;;;14.12;100.00
45941;BME280;31858;46.008;8.978;2023-06-04T04:34:54;94715.63;;;14.12;100.00
45941;BME280;31858;46.008;8.978;2023-06-04T04:44:57;94688.81;;;14.12;100.00
45941;BME280;31858;46.008;8.978;2023-06-04T04:55:00;94693.47;;;13.97;100.00
45941;BME280;31858;46.008;8.978;2023-06-04T05:05:02;94684.31;;;13.84;100.00
45941;BME280;31858;46.008;8.978;2023-06-04T05:15:07;94672.09;;;13.83;100.00
45941;BME280;31858;46.008;8.978;2023-06-04T05:25:08;94683.97;;;13.75;100.00
45941;BME280;31858;46.008;8.978;2023-06-04T05:35:11;94710.41;;;13.55;100.00
45941;BME280;31858;46.008;8.978;2023-06-04T05:45:13;94725.72;;;13.48;100.00
45941;BME280;31858;46.008;8.978;2023-06-04T05:55:16;94708.84;;;13.68;100.00
45941;BME280;31858;46.008;8.978;2023-06-04T06:05:19;94719.56;;;13.61;100.00
45941;BME280;31858;46.008;8.978;2023-06-04T06:15:22;94691.28;;;13.60;100.00
45941;BME280;31858;46.008;8.978;2023-06-04T06:25:23;94699.72;;;13.41;100.00
45941;BME280;31858;46.008;8.978;2023-06-04T06:35:26;94699.75;;;13.16;100.00
45941;BME280;31858;46.008;8.978;2023-06-04T06:45:28;94733.34;;;13.03;100.00
45941;BME280;31858;46.008;8.978;2023-06-04T06:55:31;94740.25;;;13.18;100.00
45941;BME280;31858;46.008;8.978;2023-06-04T07:05:33;94753.63;;;13.32;100.00
45941;BME280;31858;46.008;8.978;2023-06-04T07:15:36;94749.44;;;13.38;100.00
45941;BME280;31858;46.008;8.978;2023-06-04T07:25:37;94742.56;;;13.34;100.00
45941;BME280;31858;46.008;8.978;2023-06-04T07:35:40;94746.00;;;13.42;100.00
45941;BME280;31858;46.008;8.978;2023-06-04T07:45:42;94773.13;;;13.47;100.00
45941;BME280;31858;46.008;8.978;2023-06-04T07:55:45;94776.94;;;13.60;100.00
45941;BME280;31858;46.008;8.978;2023-06-04T08:05:47;94813.66;;;13.70;100.00
45941;BME280;31858;46.008;8.978;2023-06-04T08:15:50;94819.75;;;13.89;100.00
45941;BME280;31858;46.008;8.978;2023-06-04T08:25:51;94837.34;;;14.04;100.00
45941;BME280;31858;46.008;8.978;2023-06-04T08:35:54;94842.31;;;14.16;100.00
45941;BME280;31858;46.008;8.978;2023-06-04T08:45:59;94874.06;;;14.28;100.00
45941;BME280;31858;46.008;8.978;2023-06-04T08:56:03;94875.16;;;14.34;100.00
45941;BME280;31858;46.008;8.978;2023-06-04T09:06:05;94888.94;;;14.58;100.00
45941;BME280;31858;46.008;8.978;2023-06-04T09:16:08;94894.25;;;14.76;100.00
45941;BME280;31858;46.008;8.978;2023-06-04T09:26:10;94900.72;;;14.85;100.00
45941;BME280;31858;46.008;8.978;2023-06-04T09:36:14;94903.34;;;14.96;100.00
45941;BME280;31858;46.008;8.978;2023-06-04T09:46:17;94898.00;;;14.92;100.00
45941;BME280;31858;46.008;8.978;2023-06-04T09:56:20;94881.16;;;14.92;100.00
45941;BME280;31858;46.008;8.978;2023-06-04T10:06:22;94883.81;;;14.95;100.00
45941;BME280;31858;46.008;8.978;2023-06-04T10:16:26;94889.91;;;15.03;100.00
45941;BME280;31858;46.008;8.978;2023-06-04T10:26:28;94886.81;;;15.12;100.00
45941;BME280;31858;46.008;8.978;2023-06-04T10:36:42;94879.88;;;15.18;100.00
45941;BME280;31858;46.008;8.978;2023-06-04T10:46:44;94884.41;;;15.28;100.00
45941;BME280;31858;46.008;8.978;2023-06-04T10:56:47;94875.53;;;15.38;100.00
45941;BME280;31858;46.008;8.978;2023-06-04T11:07:00;94871.97;;;15.55;100.00
45941;BME280;31858;46.008;8.978;2023-06-04T11:17:10;94833.69;;;15.44;100.00
45941;BME280;31858;46.008;8.978;2023-06-04T11:27:12;94826.94;;;15.74;100.00
45941;BME280;31858;46.008;8.978;2023-06-04T11:37:15;94839.09;;;15.89;100.00
45941;BME280;31858;46.008;8.978;2023-06-04T11:47:16;94814.94;;;15.85;100.00
45941;BME280;31858;46.008;8.978;2023-06-04T11:57:20;94799.53;;;15.93;100.00
45941;BME280;31858;46.008;8.978;2023-06-04T12:07:21;94792.34;;;16.20;100.00
45941;BME280;31858;46.008;8.978;2023-06-04T12:17:25;94789.16;;;16.29;100.00
45941;BME280;31858;46.008;8.978;2023-06-04T12:27:27;94787.16;;;16.37;100.00
45941;BME280;31858;46.008;8.978;2023-06-04T12:37:30;94768.25;;;16.44;100.00
45941;BME280;31858;46.008;8.978;2023-06-04T12:47:31;94754.72;;;16.51;100.00
45941;BME280;31858;46.008;8.978;2023-06-04T12:57:34;94734.19;;;16.64;100.00
45941;BME280;31858;46.008;8.978;2023-06-04T13:07:36;94705.69;;;16.70;100.00
45941;BME280;31858;46.008;8.978;2023-06-04T13:17:40;94685.00;;;16.90;100.00
45941;BME280;31858;46.008;8.978;2023-06-04T13:27:44;94682.38;;;17.10;100.00
45941;BME280;31858;46.008;8.978;2023-06-04T13:37:47;94660.16;;;17.29;100.00
45941;BME280;31858;46.008;8.978;2023-06-04T13:47:48;94636.16;;;17.58;100.00
45941;BME280;31858;46.008;8.978;2023-06-04T13:57:51;94629.84;;;17.69;100.00
45941;BME280;31858;46.008;8.978;2023-06-04T14:07:53;94601.28;;;18.27;100.00
45941;BME280;31858;46.008;8.978;2023-06-04T14:17:56;94578.00;;;18.69;100.00
45941;BME280;31858;46.008;8.978;2023-06-04T14:27:58;94558.41;;;18.98;100.00
45941;BME280;31858;46.008;8.978;2023-06-04T14:38:01;94543.31;;;19.58;100.00
45941;BME280;31858;46.008;8.978;2023-06-04T14:48:02;94514.97;;;20.04;100.00
45941;BME280;31858;46.008;8.978;2023-06-04T14:58:06;94505.53;;;20.60;100.00
45941;BME280;31858;46.008;8.978;2023-06-04T15:08:07;94509.56;;;20.04;100.00
45941;BME280;31858;46.008;8.978;2023-06-04T15:18:10;94521.34;;;19.98;100.00
45941;BME280;31858;46.008;8.978;2023-06-04T15:28:12;94518.84;;;20.03;100.00
45941;BME280;31858;46.008;8.978;2023-06-04T15:38:15;94521.06;;;19.67;100.00
45941;BME280;31858;46.008;8.978;2023-06-04T15:48:16;94522.66;;;19.51;100.00
45941;BME280;31858;46.008;8.978;2023-06-04T15:58:20;94523.63;;;19.45;100.00
45941;BME280;31858;46.008;8.978;2023-06-04T16:08:21;94520.41;;;19.21;100.00
45941;BME280;31858;46.008;8.978;2023-06-04T16:18:24;94525.97;;;18.85;100.00
45941;BME280;31858;46.008;8.978;2023-06-04T16:28:26;94514.41;;;18.68;100.00
45941;BME280;31858;46.008;8.978;2023-06-04T16:38:29;94498.22;;;18.52;100.00
45941;BME280;31858;46.008;8.978;2023-06-04T16:48:30;94515.16;;;18.52;100.00
45941;BME280;31858;46.008;8.978;2023-06-04T16:58:33;94514.41;;;18.68;100.00
45941;BME280;31858;46.008;8.978;2023-06-04T17:08:38;94516.16;;;18.58;100.00
45941;BME280;31858;46.008;8.978;2023-06-04T17:18:41;94529.25;;;18.44;100.00
45941;BME280;31858;46.008;8.978;2023-06-04T17:28:43;94526.94;;;18.26;100.00
45941;BME280;31858;46.008;8.978;2023-06-04T17:38:46;94507.16;;;18.00;100.00
45941;BME280;31858;46.008;8.978;2023-06-04T17:48:47;94523.75;;;18.15;100.00
45941;BME280;31858;46.008;8.978;2023-06-04T17:58:50;94508.25;;;18.03;100.00
45941;BME280;31858;46.008;8.978;2023-06-04T18:08:52;94512.03;;;18.05;100.00
45941;BME280;31858;46.008;8.978;2023-06-04T18:18:55;94518.38;;;17.79;100.00
45941;BME280;31858;46.008;8.978;2023-06-04T18:28:56;94532.28;;;17.57;100.00
45941;BME280;31858;46.008;8.978;2023-06-04T18:38:59;94538.47;;;17.54;100.00
45941;BME280;31858;46.008;8.978;2023-06-04T18:49:01;94551.94;;;17.35;100.00
45941;BME280;31858;46.008;8.978;2023-06-04T18:59:04;94561.69;;;17.28;100.00
45941;BME280;31858;46.008;8.978;2023-06-04T19:09:06;94571.38;;;17.03;100.00
45941;BME280;31858;46.008;8.978;2023-06-04T19:19:09;94587.97;;;16.78;100.00
45941;BME280;31858;46.008;8.978;2023-06-04T19:29:10;94581.59;;;16.68;100.00
45941;BME280;31858;46.008;8.978;2023-06-04T19:39:13;94600.72;;;16.47;100.00
45941;BME280;31858;46.008;8.978;2023-06-04T19:49:15;94619.38;;;16.57;100.00
45941;BME280;31858;46.008;8.978;2023-06-04T19:59:21;94634.00;;;16.56;100.00
45941;BME280;31858;46.008;8.978;2023-06-04T20:09:23;94629.13;;;16.48;100.00
45941;BME280;31858;46.008;8.978;2023-06-04T20:19:26;94640.47;;;16.32;100.00
45941;BME280;31858;46.008;8.978;2023-06-04T20:29:28;94624.56;;;16.45;100.00
45941;BME280;31858;46.008;8.978;2023-06-04T20:39:31;94637.66;;;16.43;100.00
45941;BME280;31858;46.008;8.978;2023-06-04T20:49:34;94650.22;;;16.22;100.00
45941;BME280;31858;46.008;8.978;2023-06-04T20:59:37;94655.72;;;16.12;100.00
45941;BME280;31858;46.008;8.978;2023-06-04T21:09:38;94661.28;;;15.97;100.00
45941;BME280;31858;46.008;8.978;2023-06-04T21:19:41;94665.94;;;15.93;100.00
45941;BME280;31858;46.008;8.978;2023-06-04T21:29:43;94683.72;;;15.80;100.00
45941;BME280;31858;46.008;8.978;2023-06-04T21:39:46;94700.31;;;15.72;100.00
45941;BME280;31858;46.008;8.978;2023-06-04T21:49:48;94710.75;;;15.66;100.00
45941;BME280;31858;46.008;8.978;2023-06-04T21:59:50;94703.13;;;15.61;100.00
45941;BME280;31858;46.008;8.978;2023-06-04T22:09:52;94706.25;;;15.52;100.00
45941;BME280;31858;46.008;8.978;2023-06-04T22:19:55;94725.56;;;15.40;100.00
45941;BME280;31858;46.008;8.978;2023-06-04T22:29:57;94724.09;;;15.32;100.00
45941;BME280;31858;46.008;8.978;2023-06-04T22:40:00;94728.28;;;15.33;100.00
45941;BME280;31858;46.008;8.978;2023-06-04T22:50:02;94704.06;;;15.40;100.00
45941;BME280;31858;46.008;8.978;2023-06-04T23:00:08;94682.53;;;15.47;100.00
45941;BME280;31858;46.008;8.978;2023-06-04T23:10:11;94674.22;;;15.34;100.00
45941;BME280;31858;46.008;8.978;2023-06-04T23:20:14;94668.41;;;15.40;100.00
45941;BME280;31858;46.008;8.978;2023-06-04T23:30:16;94673.16;;;15.25;100.00
45941;BME280;31858;46.008;8.978;2023-06-04T23:40:20;94670.34;;;14.91;100.00
45941;BME280;31858;46.008;8.978;2023-06-04T23:50:22;94694.63;;;14.73;100.00
